Overview Statistics Trail Chart Weather Telemetry Raw packets
 

This is the latest recevied weather packets stored in our database for station/object KG5CK-1. If no packets are shown the sender has not sent any weather packets the latest 10 day(s).

<< 61 62 63 64 65 66 67 >>
Time Temp. Humidity Pressure Rain* Wind** Luminosity Snow
1788633062 36.67° C 46% 1009.5 hPa 0 mm 0.45 m/s, 62° - -
1788633003 36.67° C 48% 1009.7 hPa 0 mm 1.34 m/s, 124° - -
1788632942 36.67° C 48% 1009.7 hPa 0 mm 1.34 m/s, 124° - -
1788632882 36.67° C 48% 1009.7 hPa 0 mm 1.34 m/s, 124° - -
1788632823 36.67° C 48% 1009.7 hPa 0 mm 1.34 m/s, 124° - -
1788632763 36.67° C 48% 1009.7 hPa 0 mm 1.34 m/s, 124° - -
1788632703 35.56° C 50% 1009.8 hPa 0 mm 0.89 m/s, 117° - -
1788632643 35.56° C 50% 1009.8 hPa 0 mm 0.89 m/s, 117° - -
1788632582 35.56° C 50% 1009.8 hPa 0 mm 0.89 m/s, 117° - -
1788632522 35.56° C 50% 1009.8 hPa 0 mm 0.89 m/s, 117° - -
1788632463 35.56° C 50% 1009.8 hPa 0 mm 0.89 m/s, 117° - -
1788632403 35.56° C 50% 1009.8 hPa 0 mm 0.89 m/s, 117° - -
1788632343 34.44° C 53% 1009.9 hPa 0 mm 0.45 m/s, 79° - -
1788632282 34.44° C 53% 1009.9 hPa 0 mm 0.45 m/s, 79° - -
1788632222 34.44° C 53% 1009.9 hPa 0 mm 0.45 m/s, 79° - -
1788632163 34.44° C 53% 1009.9 hPa 0 mm 0.45 m/s, 79° - -
1788632103 36.11° C 51% 1009.7 hPa 0 mm 1.79 m/s, 115° - -
1788632043 36.11° C 51% 1009.7 hPa 0 mm 1.79 m/s, 115° - -
1788631983 36.11° C 51% 1009.7 hPa 0 mm 1.79 m/s, 115° - -
1788631922 36.11° C 51% 1009.7 hPa 0 mm 1.79 m/s, 115° - -
1788631862 36.11° C 51% 1009.7 hPa 0 mm 1.79 m/s, 115° - -
1788631803 36.67° C 48% 1009.8 hPa 0 mm 0.89 m/s, 120° - -
1788631743 36.67° C 48% 1009.8 hPa 0 mm 0.89 m/s, 120° - -
1788631683 36.67° C 48% 1009.8 hPa 0 mm 0.89 m/s, 120° - -
1788631623 36.67° C 48% 1009.8 hPa 0 mm 0.89 m/s, 120° - -

* Rain latest hour (hover to see other rain measurements)
** Current wind speed in m/s (hover to see current wind gust speed)